sensor_id;sensor_type;location;lat;lon;timestamp;temperature;humidity
10566;DHT22;5331;48.148;16.326;2023-05-27T00:02:25;16.10;1.00
10566;DHT22;5331;48.148;16.326;2023-05-27T00:04:53;16.10;1.00
10566;DHT22;5331;48.148;16.326;2023-05-27T00:07:20;16.10;1.00
10566;DHT22;5331;48.148;16.326;2023-05-27T00:09:48;16.10;1.00
10566;DHT22;5331;48.148;16.326;2023-05-27T00:12:15;16.10;1.00
10566;DHT22;5331;48.148;16.326;2023-05-27T00:14:42;16.10;1.00
10566;DHT22;5331;48.148;16.326;2023-05-27T00:17:09;16.10;1.00
10566;DHT22;5331;48.148;16.326;2023-05-27T00:19:39;16.10;1.00
10566;DHT22;5331;48.148;16.326;2023-05-27T00:22:06;16.00;1.00
10566;DHT22;5331;48.148;16.326;2023-05-27T00:24:34;16.10;1.00
10566;DHT22;5331;48.148;16.326;2023-05-27T00:27:04;16.10;1.00
10566;DHT22;5331;48.148;16.326;2023-05-27T00:29:31;16.00;1.00
10566;DHT22;5331;48.148;16.326;2023-05-27T00:31:59;16.00;1.00
10566;DHT22;5331;48.148;16.326;2023-05-27T00:34:28;16.00;1.00
10566;DHT22;5331;48.148;16.326;2023-05-27T00:36:55;16.00;1.00
10566;DHT22;5331;48.148;16.326;2023-05-27T00:39:22;15.90;1.00
10566;DHT22;5331;48.148;16.326;2023-05-27T00:41:50;15.90;1.00
10566;DHT22;5331;48.148;16.326;2023-05-27T00:44:18;15.90;1.00
10566;DHT22;5331;48.148;16.326;2023-05-27T00:46:47;15.90;1.00
10566;DHT22;5331;48.148;16.326;2023-05-27T00:49:14;15.80;1.00
10566;DHT22;5331;48.148;16.326;2023-05-27T00:51:41;15.80;1.00
10566;DHT22;5331;48.148;16.326;2023-05-27T00:54:08;15.80;1.00
10566;DHT22;5331;48.148;16.326;2023-05-27T00:56:36;15.80;1.00
10566;DHT22;5331;48.148;16.326;2023-05-27T00:59:03;15.80;1.00
10566;DHT22;5331;48.148;16.326;2023-05-27T01:01:32;15.80;1.00
10566;DHT22;5331;48.148;16.326;2023-05-27T01:04:04;15.80;1.00
10566;DHT22;5331;48.148;16.326;2023-05-27T01:06:39;15.70;1.00
10566;DHT22;5331;48.148;16.326;2023-05-27T01:09:14;15.70;1.00
10566;DHT22;5331;48.148;16.326;2023-05-27T01:11:46;15.70;1.00
10566;DHT22;5331;48.148;16.326;2023-05-27T01:14:14;15.60;1.00
10566;DHT22;5331;48.148;16.326;2023-05-27T01:16:44;15.50;1.00
10566;DHT22;5331;48.148;16.326;2023-05-27T01:19:14;15.50;1.00
10566;DHT22;5331;48.148;16.326;2023-05-27T01:21:47;15.40;1.00
10566;DHT22;5331;48.148;16.326;2023-05-27T01:24:18;15.30;1.00
10566;DHT22;5331;48.148;16.326;2023-05-27T01:26:46;15.30;1.00
10566;DHT22;5331;48.148;16.326;2023-05-27T01:29:13;15.20;1.00
10566;DHT22;5331;48.148;16.326;2023-05-27T01:31:54;15.10;1.00
10566;DHT22;5331;48.148;16.326;2023-05-27T01:34:28;15.00;1.00
10566;DHT22;5331;48.148;16.326;2023-05-27T01:37:01;15.00;1.00
10566;DHT22;5331;48.148;16.326;2023-05-27T01:39:32;14.90;1.00
10566;DHT22;5331;48.148;16.326;2023-05-27T01:42:00;14.90;1.00
10566;DHT22;5331;48.148;16.326;2023-05-27T01:44:29;14.80;1.00
10566;DHT22;5331;48.148;16.326;2023-05-27T01:47:00;14.70;1.00
10566;DHT22;5331;48.148;16.326;2023-05-27T01:49:29;14.70;1.00
10566;DHT22;5331;48.148;16.326;2023-05-27T01:51:56;14.70;1.00
10566;DHT22;5331;48.148;16.326;2023-05-27T01:54:23;14.70;1.00
10566;DHT22;5331;48.148;16.326;2023-05-27T01:56:51;14.60;1.00
10566;DHT22;5331;48.148;16.326;2023-05-27T01:59:18;14.70;1.00
10566;DHT22;5331;48.148;16.326;2023-05-27T02:01:45;14.60;1.00
10566;DHT22;5331;48.148;16.326;2023-05-27T02:04:12;14.50;1.00
10566;DHT22;5331;48.148;16.326;2023-05-27T02:06:39;14.50;1.00
10566;DHT22;5331;48.148;16.326;2023-05-27T02:09:06;14.50;1.00
10566;DHT22;5331;48.148;16.326;2023-05-27T02:11:33;14.50;1.00
10566;DHT22;5331;48.148;16.326;2023-05-27T02:14:01;14.40;1.00
10566;DHT22;5331;48.148;16.326;2023-05-27T02:16:28;14.40;1.00
10566;DHT22;5331;48.148;16.326;2023-05-27T02:18:55;14.40;1.00
10566;DHT22;5331;48.148;16.326;2023-05-27T02:21:22;14.40;1.00
10566;DHT22;5331;48.148;16.326;2023-05-27T02:23:49;14.40;1.00
10566;DHT22;5331;48.148;16.326;2023-05-27T02:26:17;14.30;1.00
10566;DHT22;5331;48.148;16.326;2023-05-27T02:28:45;14.30;1.00
10566;DHT22;5331;48.148;16.326;2023-05-27T02:31:13;14.30;1.00
10566;DHT22;5331;48.148;16.326;2023-05-27T02:33:40;14.20;1.00
10566;DHT22;5331;48.148;16.326;2023-05-27T02:36:07;14.20;1.00
10566;DHT22;5331;48.148;16.326;2023-05-27T02:38:34;14.20;1.00
10566;DHT22;5331;48.148;16.326;2023-05-27T02:41:01;14.20;1.00
10566;DHT22;5331;48.148;16.326;2023-05-27T02:43:28;14.20;1.00
10566;DHT22;5331;48.148;16.326;2023-05-27T02:45:55;14.10;1.00
10566;DHT22;5331;48.148;16.326;2023-05-27T02:48:23;14.20;1.00
10566;DHT22;5331;48.148;16.326;2023-05-27T02:50:50;14.10;1.00
10566;DHT22;5331;48.148;16.326;2023-05-27T02:53:17;14.10;1.00
10566;DHT22;5331;48.148;16.326;2023-05-27T02:55:44;14.00;1.00
10566;DHT22;5331;48.148;16.326;2023-05-27T02:58:10;14.00;1.00
10566;DHT22;5331;48.148;16.326;2023-05-27T03:00:37;13.90;1.00
10566;DHT22;5331;48.148;16.326;2023-05-27T03:03:04;14.00;1.00
10566;DHT22;5331;48.148;16.326;2023-05-27T03:05:34;13.90;1.00
10566;DHT22;5331;48.148;16.326;2023-05-27T03:08:01;13.90;1.00
10566;DHT22;5331;48.148;16.326;2023-05-27T03:10:28;13.90;1.00
10566;DHT22;5331;48.148;16.326;2023-05-27T03:12:56;13.80;1.00
10566;DHT22;5331;48.148;16.326;2023-05-27T03:15:23;13.80;1.00
10566;DHT22;5331;48.148;16.326;2023-05-27T03:17:50;13.80;1.00
10566;DHT22;5331;48.148;16.326;2023-05-27T03:20:17;13.70;1.00
10566;DHT22;5331;48.148;16.326;2023-05-27T03:22:45;13.80;1.00
10566;DHT22;5331;48.148;16.326;2023-05-27T03:25:13;13.80;1.00
10566;DHT22;5331;48.148;16.326;2023-05-27T03:27:40;13.70;1.00
10566;DHT22;5331;48.148;16.326;2023-05-27T03:30:07;13.70;1.00
10566;DHT22;5331;48.148;16.326;2023-05-27T03:32:34;13.80;1.00
10566;DHT22;5331;48.148;16.326;2023-05-27T03:35:01;13.80;1.00
10566;DHT22;5331;48.148;16.326;2023-05-27T03:37:28;13.80;1.00
10566;DHT22;5331;48.148;16.326;2023-05-27T03:39:56;13.70;1.00
10566;DHT22;5331;48.148;16.326;2023-05-27T03:42:23;13.70;1.00
10566;DHT22;5331;48.148;16.326;2023-05-27T03:44:50;13.80;1.00
10566;DHT22;5331;48.148;16.326;2023-05-27T03:47:17;13.80;1.00
10566;DHT22;5331;48.148;16.326;2023-05-27T03:49:46;13.80;1.00
10566;DHT22;5331;48.148;16.326;2023-05-27T03:52:13;13.80;1.00
10566;DHT22;5331;48.148;16.326;2023-05-27T03:54:40;13.90;1.00
10566;DHT22;5331;48.148;16.326;2023-05-27T03:57:08;13.90;1.00
10566;DHT22;5331;48.148;16.326;2023-05-27T03:59:36;13.90;1.00
10566;DHT22;5331;48.148;16.326;2023-05-27T04:02:03;13.90;1.00
10566;DHT22;5331;48.148;16.326;2023-05-27T04:04:30;14.00;1.00
10566;DHT22;5331;48.148;16.326;2023-05-27T04:06:57;14.00;1.00
10566;DHT22;5331;48.148;16.326;2023-05-27T04:09:23;14.00;1.00
10566;DHT22;5331;48.148;16.326;2023-05-27T04:11:51;14.10;1.00
10566;DHT22;5331;48.148;16.326;2023-05-27T04:14:19;14.10;1.00
10566;DHT22;5331;48.148;16.326;2023-05-27T04:16:46;14.20;1.00
10566;DHT22;5331;48.148;16.326;2023-05-27T04:19:13;14.20;1.00
10566;DHT22;5331;48.148;16.326;2023-05-27T04:21:40;14.30;1.00
10566;DHT22;5331;48.148;16.326;2023-05-27T04:24:07;14.30;1.00
10566;DHT22;5331;48.148;16.326;2023-05-27T04:26:35;14.30;1.00
10566;DHT22;5331;48.148;16.326;2023-05-27T04:29:02;14.30;1.00
10566;DHT22;5331;48.148;16.326;2023-05-27T04:31:31;14.40;1.00
10566;DHT22;5331;48.148;16.326;2023-05-27T04:33:58;14.40;1.00
10566;DHT22;5331;48.148;16.326;2023-05-27T04:36:25;14.50;1.00
10566;DHT22;5331;48.148;16.326;2023-05-27T04:38:58;14.60;1.00
10566;DHT22;5331;48.148;16.326;2023-05-27T04:41:26;14.60;1.00
10566;DHT22;5331;48.148;16.326;2023-05-27T04:43:54;14.60;1.00
10566;DHT22;5331;48.148;16.326;2023-05-27T04:46:22;14.70;1.00
10566;DHT22;5331;48.148;16.326;2023-05-27T04:48:52;14.80;1.00
10566;DHT22;5331;48.148;16.326;2023-05-27T04:51:19;14.80;1.00
10566;DHT22;5331;48.148;16.326;2023-05-27T04:53:46;14.90;1.00
10566;DHT22;5331;48.148;16.326;2023-05-27T04:56:14;14.90;1.00
10566;DHT22;5331;48.148;16.326;2023-05-27T04:58:42;15.00;1.00
10566;DHT22;5331;48.148;16.326;2023-05-27T05:01:12;15.10;1.00
10566;DHT22;5331;48.148;16.326;2023-05-27T05:03:43;15.10;1.00
10566;DHT22;5331;48.148;16.326;2023-05-27T05:06:19;15.10;1.00
10566;DHT22;5331;48.148;16.326;2023-05-27T05:08:46;15.20;1.00
10566;DHT22;5331;48.148;16.326;2023-05-27T05:11:14;15.20;1.00
10566;DHT22;5331;48.148;16.326;2023-05-27T05:13:41;15.30;1.00
10566;DHT22;5331;48.148;16.326;2023-05-27T05:16:08;15.30;1.00
10566;DHT22;5331;48.148;16.326;2023-05-27T05:18:34;15.30;1.00
10566;DHT22;5331;48.148;16.326;2023-05-27T05:21:01;15.50;1.00
10566;DHT22;5331;48.148;16.326;2023-05-27T05:23:30;15.40;1.00
10566;DHT22;5331;48.148;16.326;2023-05-27T05:25:57;15.50;1.00
10566;DHT22;5331;48.148;16.326;2023-05-27T05:28:31;15.50;1.00
10566;DHT22;5331;48.148;16.326;2023-05-27T05:30:58;15.60;1.00
10566;DHT22;5331;48.148;16.326;2023-05-27T05:33:25;15.60;1.00
10566;DHT22;5331;48.148;16.326;2023-05-27T05:35:52;15.60;1.00
10566;DHT22;5331;48.148;16.326;2023-05-27T05:38:19;15.70;1.00
10566;DHT22;5331;48.148;16.326;2023-05-27T05:40:48;15.80;1.00
10566;DHT22;5331;48.148;16.326;2023-05-27T05:43:18;15.80;1.00
10566;DHT22;5331;48.148;16.326;2023-05-27T05:45:45;15.80;1.00
10566;DHT22;5331;48.148;16.326;2023-05-27T05:48:12;15.90;1.00
10566;DHT22;5331;48.148;16.326;2023-05-27T05:50:39;16.00;1.00
10566;DHT22;5331;48.148;16.326;2023-05-27T05:53:06;16.00;1.00
10566;DHT22;5331;48.148;16.326;2023-05-27T05:55:33;16.00;1.00
10566;DHT22;5331;48.148;16.326;2023-05-27T05:58:01;16.30;1.00
10566;DHT22;5331;48.148;16.326;2023-05-27T06:00:28;16.70;1.00
10566;DHT22;5331;48.148;16.326;2023-05-27T06:02:55;16.90;1.00
10566;DHT22;5331;48.148;16.326;2023-05-27T06:05:22;17.00;1.00
10566;DHT22;5331;48.148;16.326;2023-05-27T06:07:51;17.20;1.00
10566;DHT22;5331;48.148;16.326;2023-05-27T06:10:18;17.50;1.00
10566;DHT22;5331;48.148;16.326;2023-05-27T06:12:45;18.00;1.00
10566;DHT22;5331;48.148;16.326;2023-05-27T06:15:14;18.30;1.00
10566;DHT22;5331;48.148;16.326;2023-05-27T06:17:41;18.60;1.00
10566;DHT22;5331;48.148;16.326;2023-05-27T06:20:08;18.90;1.00
10566;DHT22;5331;48.148;16.326;2023-05-27T06:22:35;19.20;1.00
10566;DHT22;5331;48.148;16.326;2023-05-27T06:25:02;19.50;1.00
10566;DHT22;5331;48.148;16.326;2023-05-27T06:27:29;19.30;1.00
10566;DHT22;5331;48.148;16.326;2023-05-27T06:29:56;19.50;1.00
10566;DHT22;5331;48.148;16.326;2023-05-27T06:32:24;19.80;1.00
10566;DHT22;5331;48.148;16.326;2023-05-27T06:34:51;20.20;1.00
10566;DHT22;5331;48.148;16.326;2023-05-27T06:37:18;20.50;1.00
10566;DHT22;5331;48.148;16.326;2023-05-27T06:39:45;20.60;1.00
10566;DHT22;5331;48.148;16.326;2023-05-27T06:42:12;20.20;1.00
10566;DHT22;5331;48.148;16.326;2023-05-27T06:44:39;20.50;1.00
10566;DHT22;5331;48.148;16.326;2023-05-27T06:47:06;20.60;1.00
10566;DHT22;5331;48.148;16.326;2023-05-27T06:49:34;20.50;1.00
10566;DHT22;5331;48.148;16.326;2023-05-27T06:52:02;20.60;1.00
10566;DHT22;5331;48.148;16.326;2023-05-27T06:54:29;20.70;1.00
10566;DHT22;5331;48.148;16.326;2023-05-27T06:56:56;20.90;1.00
10566;DHT22;5331;48.148;16.326;2023-05-27T06:59:23;21.10;1.00
10566;DHT22;5331;48.148;16.326;2023-05-27T07:01:50;21.30;1.00
10566;DHT22;5331;48.148;16.326;2023-05-27T07:04:17;21.40;1.00
10566;DHT22;5331;48.148;16.326;2023-05-27T07:06:45;21.40;1.00
10566;DHT22;5331;48.148;16.326;2023-05-27T07:09:12;21.60;1.00
10566;DHT22;5331;48.148;16.326;2023-05-27T07:11:39;21.90;1.00
10566;DHT22;5331;48.148;16.326;2023-05-27T07:14:06;22.00;1.00
10566;DHT22;5331;48.148;16.326;2023-05-27T07:16:34;22.00;1.00
10566;DHT22;5331;48.148;16.326;2023-05-27T07:19:01;22.00;1.00
10566;DHT22;5331;48.148;16.326;2023-05-27T07:21:28;21.90;1.00
10566;DHT22;5331;48.148;16.326;2023-05-27T07:23:56;22.10;1.00
10566;DHT22;5331;48.148;16.326;2023-05-27T07:26:24;22.00;1.00
10566;DHT22;5331;48.148;16.326;2023-05-27T07:28:52;21.50;1.00
10566;DHT22;5331;48.148;16.326;2023-05-27T07:31:19;21.60;1.00
10566;DHT22;5331;48.148;16.326;2023-05-27T07:33:46;21.40;1.00
10566;DHT22;5331;48.148;16.326;2023-05-27T07:36:13;21.20;1.00
10566;DHT22;5331;48.148;16.326;2023-05-27T07:38:40;21.60;1.00
10566;DHT22;5331;48.148;16.326;2023-05-27T07:41:09;22.10;1.00
10566;DHT22;5331;48.148;16.326;2023-05-27T07:43:36;22.10;1.00
10566;DHT22;5331;48.148;16.326;2023-05-27T07:46:03;22.20;1.00
10566;DHT22;5331;48.148;16.326;2023-05-27T07:48:30;22.20;1.00
10566;DHT22;5331;48.148;16.326;2023-05-27T07:50:57;22.50;1.00
10566;DHT22;5331;48.148;16.326;2023-05-27T07:53:24;22.70;1.00
10566;DHT22;5331;48.148;16.326;2023-05-27T07:55:51;23.00;1.00
10566;DHT22;5331;48.148;16.326;2023-05-27T07:58:19;22.90;1.00
10566;DHT22;5331;48.148;16.326;2023-05-27T08:00:46;23.10;1.00
10566;DHT22;5331;48.148;16.326;2023-05-27T08:03:13;23.10;1.00
10566;DHT22;5331;48.148;16.326;2023-05-27T08:05:40;22.70;1.00
10566;DHT22;5331;48.148;16.326;2023-05-27T08:08:07;22.60;1.00
10566;DHT22;5331;48.148;16.326;2023-05-27T08:10:34;22.40;1.00
10566;DHT22;5331;48.148;16.326;2023-05-27T08:13:00;22.30;1.00
10566;DHT22;5331;48.148;16.326;2023-05-27T08:15:29;22.20;1.00
10566;DHT22;5331;48.148;16.326;2023-05-27T08:17:56;22.10;1.00
10566;DHT22;5331;48.148;16.326;2023-05-27T08:20:23;22.30;1.00
10566;DHT22;5331;48.148;16.326;2023-05-27T08:22:51;22.60;1.00
10566;DHT22;5331;48.148;16.326;2023-05-27T08:25:19;22.70;1.00
10566;DHT22;5331;48.148;16.326;2023-05-27T08:27:48;23.00;1.00
10566;DHT22;5331;48.148;16.326;2023-05-27T08:30:16;23.00;1.00
10566;DHT22;5331;48.148;16.326;2023-05-27T08:32:45;23.20;1.00
10566;DHT22;5331;48.148;16.326;2023-05-27T08:35:12;22.40;1.00
10566;DHT22;5331;48.148;16.326;2023-05-27T08:37:40;22.50;1.00
10566;DHT22;5331;48.148;16.326;2023-05-27T08:40:10;23.10;1.00
10566;DHT22;5331;48.148;16.326;2023-05-27T08:42:37;23.60;1.00
10566;DHT22;5331;48.148;16.326;2023-05-27T08:45:05;23.90;1.00
10566;DHT22;5331;48.148;16.326;2023-05-27T08:47:33;23.20;1.00
10566;DHT22;5331;48.148;16.326;2023-05-27T08:50:02;22.80;1.00
10566;DHT22;5331;48.148;16.326;2023-05-27T08:52:29;22.70;1.00
10566;DHT22;5331;48.148;16.326;2023-05-27T08:54:57;22.80;1.00
10566;DHT22;5331;48.148;16.326;2023-05-27T08:57:29;22.50;1.00
10566;DHT22;5331;48.148;16.326;2023-05-27T08:59:57;22.80;1.00
10566;DHT22;5331;48.148;16.326;2023-05-27T09:02:26;22.20;1.00
10566;DHT22;5331;48.148;16.326;2023-05-27T09:04:55;22.20;1.00
10566;DHT22;5331;48.148;16.326;2023-05-27T09:07:24;22.60;1.00
10566;DHT22;5331;48.148;16.326;2023-05-27T09:09:55;22.60;1.00
10566;DHT22;5331;48.148;16.326;2023-05-27T09:12:23;22.60;1.00
10566;DHT22;5331;48.148;16.326;2023-05-27T09:14:51;22.90;1.00
10566;DHT22;5331;48.148;16.326;2023-05-27T09:17:22;23.00;1.00
10566;DHT22;5331;48.148;16.326;2023-05-27T09:19:50;23.00;1.00
10566;DHT22;5331;48.148;16.326;2023-05-27T09:22:21;23.20;1.00
10566;DHT22;5331;48.148;16.326;2023-05-27T09:24:52;23.40;1.00
10566;DHT22;5331;48.148;16.326;2023-05-27T09:27:25;23.80;1.00
10566;DHT22;5331;48.148;16.326;2023-05-27T09:29:52;23.40;1.00
10566;DHT22;5331;48.148;16.326;2023-05-27T09:32:26;23.60;1.00
10566;DHT22;5331;48.148;16.326;2023-05-27T09:34:54;23.00;1.00
10566;DHT22;5331;48.148;16.326;2023-05-27T09:37:24;22.70;1.00
10566;DHT22;5331;48.148;16.326;2023-05-27T09:39:59;23.10;1.00
10566;DHT22;5331;48.148;16.326;2023-05-27T09:42:26;23.40;1.00
10566;DHT22;5331;48.148;16.326;2023-05-27T09:44:54;23.60;1.00
10566;DHT22;5331;48.148;16.326;2023-05-27T09:47:21;23.50;1.00
10566;DHT22;5331;48.148;16.326;2023-05-27T09:49:52;23.40;1.00
10566;DHT22;5331;48.148;16.326;2023-05-27T09:52:20;23.60;1.00
10566;DHT22;5331;48.148;16.326;2023-05-27T09:54:48;23.80;1.00
10566;DHT22;5331;48.148;16.326;2023-05-27T09:57:18;23.80;1.00
10566;DHT22;5331;48.148;16.326;2023-05-27T09:59:47;23.90;1.00
10566;DHT22;5331;48.148;16.326;2023-05-27T10:02:18;24.10;1.00
10566;DHT22;5331;48.148;16.326;2023-05-27T10:04:48;24.10;1.00
10566;DHT22;5331;48.148;16.326;2023-05-27T10:07:17;23.80;1.00
10566;DHT22;5331;48.148;16.326;2023-05-27T10:09:46;23.40;1.00
10566;DHT22;5331;48.148;16.326;2023-05-27T10:12:15;23.60;1.00
10566;DHT22;5331;48.148;16.326;2023-05-27T10:14:45;23.80;1.00
10566;DHT22;5331;48.148;16.326;2023-05-27T10:17:14;23.80;1.00
10566;DHT22;5331;48.148;16.326;2023-05-27T10:19:54;23.80;1.00
10566;DHT22;5331;48.148;16.326;2023-05-27T10:22:22;23.80;1.00
10566;DHT22;5331;48.148;16.326;2023-05-27T10:24:49;23.90;1.00
10566;DHT22;5331;48.148;16.326;2023-05-27T10:27:19;24.00;1.00
10566;DHT22;5331;48.148;16.326;2023-05-27T10:29:57;24.00;1.00
10566;DHT22;5331;48.148;16.326;2023-05-27T10:32:25;24.30;1.00
10566;DHT22;5331;48.148;16.326;2023-05-27T10:34:53;24.30;1.00
10566;DHT22;5331;48.148;16.326;2023-05-27T10:37:21;24.20;1.00
10566;DHT22;5331;48.148;16.326;2023-05-27T10:39:55;24.30;1.00
10566;DHT22;5331;48.148;16.326;2023-05-27T10:42:22;24.50;1.00
10566;DHT22;5331;48.148;16.326;2023-05-27T10:45:03;24.30;1.00
10566;DHT22;5331;48.148;16.326;2023-05-27T10:47:34;23.90;1.00
10566;DHT22;5331;48.148;16.326;2023-05-27T10:50:10;24.20;1.00
10566;DHT22;5331;48.148;16.326;2023-05-27T10:52:38;24.40;1.00
10566;DHT22;5331;48.148;16.326;2023-05-27T10:55:06;24.70;1.00
10566;DHT22;5331;48.148;16.326;2023-05-27T10:57:33;24.60;1.00
10566;DHT22;5331;48.148;16.326;2023-05-27T11:00:03;24.30;1.00
10566;DHT22;5331;48.148;16.326;2023-05-27T11:02:36;24.10;1.00
10566;DHT22;5331;48.148;16.326;2023-05-27T11:05:09;24.10;1.00
10566;DHT22;5331;48.148;16.326;2023-05-27T11:07:37;24.00;1.00
10566;DHT22;5331;48.148;16.326;2023-05-27T11:10:05;23.90;1.00
10566;DHT22;5331;48.148;16.326;2023-05-27T11:12:32;24.20;1.00
10566;DHT22;5331;48.148;16.326;2023-05-27T11:15:01;24.20;1.00
10566;DHT22;5331;48.148;16.326;2023-05-27T11:17:28;24.10;1.00
10566;DHT22;5331;48.148;16.326;2023-05-27T11:19:56;23.40;1.00
10566;DHT22;5331;48.148;16.326;2023-05-27T11:22:22;23.40;1.00
10566;DHT22;5331;48.148;16.326;2023-05-27T11:24:56;23.70;1.00
10566;DHT22;5331;48.148;16.326;2023-05-27T11:27:23;23.70;1.00
10566;DHT22;5331;48.148;16.326;2023-05-27T11:29:52;23.90;1.00
10566;DHT22;5331;48.148;16.326;2023-05-27T11:32:20;24.10;1.00
10566;DHT22;5331;48.148;16.326;2023-05-27T11:34:47;24.40;1.00
10566;DHT22;5331;48.148;16.326;2023-05-27T11:37:15;24.20;1.00
10566;DHT22;5331;48.148;16.326;2023-05-27T11:39:50;24.10;1.00
10566;DHT22;5331;48.148;16.326;2023-05-27T11:42:21;24.30;1.00
10566;DHT22;5331;48.148;16.326;2023-05-27T11:44:51;24.20;1.00
10566;DHT22;5331;48.148;16.326;2023-05-27T11:47:19;24.40;1.00
10566;DHT22;5331;48.148;16.326;2023-05-27T11:49:47;24.60;1.00
10566;DHT22;5331;48.148;16.326;2023-05-27T11:52:15;24.50;1.00
10566;DHT22;5331;48.148;16.326;2023-05-27T11:54:42;24.70;1.00
10566;DHT22;5331;48.148;16.326;2023-05-27T11:57:08;25.00;1.00
10566;DHT22;5331;48.148;16.326;2023-05-27T11:59:36;25.00;1.00
10566;DHT22;5331;48.148;16.326;2023-05-27T12:02:04;25.10;1.00
10566;DHT22;5331;48.148;16.326;2023-05-27T12:04:32;25.00;1.00
10566;DHT22;5331;48.148;16.326;2023-05-27T12:07:01;25.00;1.00
10566;DHT22;5331;48.148;16.326;2023-05-27T12:09:28;25.00;1.00
10566;DHT22;5331;48.148;16.326;2023-05-27T12:11:55;25.00;1.00
10566;DHT22;5331;48.148;16.326;2023-05-27T12:14:22;25.10;1.00
10566;DHT22;5331;48.148;16.326;2023-05-27T12:16:49;25.10;1.00
10566;DHT22;5331;48.148;16.326;2023-05-27T12:19:17;24.40;1.00
10566;DHT22;5331;48.148;16.326;2023-05-27T12:21:45;24.60;1.00
10566;DHT22;5331;48.148;16.326;2023-05-27T12:24:12;24.90;1.00
10566;DHT22;5331;48.148;16.326;2023-05-27T12:26:39;24.90;1.00
10566;DHT22;5331;48.148;16.326;2023-05-27T12:29:07;24.80;1.00
10566;DHT22;5331;48.148;16.326;2023-05-27T12:31:34;24.80;1.00
10566;DHT22;5331;48.148;16.326;2023-05-27T12:34:01;24.90;1.00
10566;DHT22;5331;48.148;16.326;2023-05-27T12:36:28;24.40;1.00
10566;DHT22;5331;48.148;16.326;2023-05-27T12:38:56;24.40;1.00
10566;DHT22;5331;48.148;16.326;2023-05-27T12:41:23;24.50;1.00
10566;DHT22;5331;48.148;16.326;2023-05-27T12:43:50;24.70;1.00
10566;DHT22;5331;48.148;16.326;2023-05-27T12:46:17;25.00;1.00
10566;DHT22;5331;48.148;16.326;2023-05-27T12:48:44;25.30;1.00
10566;DHT22;5331;48.148;16.326;2023-05-27T12:51:10;25.30;1.00
10566;DHT22;5331;48.148;16.326;2023-05-27T12:53:37;25.40;1.00
10566;DHT22;5331;48.148;16.326;2023-05-27T12:56:06;25.30;1.00
10566;DHT22;5331;48.148;16.326;2023-05-27T12:58:33;25.40;1.00
10566;DHT22;5331;48.148;16.326;2023-05-27T13:01:00;25.30;1.00
10566;DHT22;5331;48.148;16.326;2023-05-27T13:03:27;25.20;1.00
10566;DHT22;5331;48.148;16.326;2023-05-27T13:05:54;24.30;1.00
10566;DHT22;5331;48.148;16.326;2023-05-27T13:08:22;23.70;1.00
10566;DHT22;5331;48.148;16.326;2023-05-27T13:10:49;23.80;1.00
10566;DHT22;5331;48.148;16.326;2023-05-27T13:13:17;23.80;1.00
10566;DHT22;5331;48.148;16.326;2023-05-27T13:15:44;23.60;1.00
10566;DHT22;5331;48.148;16.326;2023-05-27T13:18:11;22.90;1.00
10566;DHT22;5331;48.148;16.326;2023-05-27T13:20:39;22.70;1.00
10566;DHT22;5331;48.148;16.326;2023-05-27T13:23:06;22.70;1.00
10566;DHT22;5331;48.148;16.326;2023-05-27T13:25:33;23.20;1.00
10566;DHT22;5331;48.148;16.326;2023-05-27T13:28:00;23.40;1.00
10566;DHT22;5331;48.148;16.326;2023-05-27T13:30:28;23.30;1.00
10566;DHT22;5331;48.148;16.326;2023-05-27T13:32:55;23.30;1.00
10566;DHT22;5331;48.148;16.326;2023-05-27T13:35:22;23.80;1.00
10566;DHT22;5331;48.148;16.326;2023-05-27T13:37:49;23.60;1.00
10566;DHT22;5331;48.148;16.326;2023-05-27T13:40:16;23.20;1.00
10566;DHT22;5331;48.148;16.326;2023-05-27T13:42:44;23.30;1.00
10566;DHT22;5331;48.148;16.326;2023-05-27T13:45:11;23.10;1.00
10566;DHT22;5331;48.148;16.326;2023-05-27T13:47:39;22.60;1.00
10566;DHT22;5331;48.148;16.326;2023-05-27T13:50:09;22.60;1.00
10566;DHT22;5331;48.148;16.326;2023-05-27T13:52:36;22.80;1.00
10566;DHT22;5331;48.148;16.326;2023-05-27T13:55:03;23.30;1.00
10566;DHT22;5331;48.148;16.326;2023-05-27T13:57:30;23.60;1.00
10566;DHT22;5331;48.148;16.326;2023-05-27T13:59:57;23.80;1.00
10566;DHT22;5331;48.148;16.326;2023-05-27T14:02:24;23.70;1.00
10566;DHT22;5331;48.148;16.326;2023-05-27T14:04:53;23.30;1.00
10566;DHT22;5331;48.148;16.326;2023-05-27T14:07:20;23.30;1.00
10566;DHT22;5331;48.148;16.326;2023-05-27T14:09:48;23.60;1.00
10566;DHT22;5331;48.148;16.326;2023-05-27T14:12:15;24.00;1.00
10566;DHT22;5331;48.148;16.326;2023-05-27T14:14:42;24.00;1.00
10566;DHT22;5331;48.148;16.326;2023-05-27T14:17:09;23.70;1.00
10566;DHT22;5331;48.148;16.326;2023-05-27T14:19:36;23.50;1.00
10566;DHT22;5331;48.148;16.326;2023-05-27T14:22:05;23.40;1.00
10566;DHT22;5331;48.148;16.326;2023-05-27T14:24:31;22.90;1.00
10566;DHT22;5331;48.148;16.326;2023-05-27T14:26:58;22.60;1.00
10566;DHT22;5331;48.148;16.326;2023-05-27T14:29:26;22.70;1.00
10566;DHT22;5331;48.148;16.326;2023-05-27T14:31:53;22.50;1.00
10566;DHT22;5331;48.148;16.326;2023-05-27T14:34:20;22.70;1.00
10566;DHT22;5331;48.148;16.326;2023-05-27T14:36:47;23.10;1.00
10566;DHT22;5331;48.148;16.326;2023-05-27T14:39:15;23.70;1.00
10566;DHT22;5331;48.148;16.326;2023-05-27T14:41:43;23.60;1.00
10566;DHT22;5331;48.148;16.326;2023-05-27T14:44:10;23.60;1.00
10566;DHT22;5331;48.148;16.326;2023-05-27T14:46:37;23.50;1.00
10566;DHT22;5331;48.148;16.326;2023-05-27T14:49:05;23.60;1.00
10566;DHT22;5331;48.148;16.326;2023-05-27T14:51:32;23.00;1.00
10566;DHT22;5331;48.148;16.326;2023-05-27T14:53:59;22.60;1.00
10566;DHT22;5331;48.148;16.326;2023-05-27T14:56:27;22.40;1.00
10566;DHT22;5331;48.148;16.326;2023-05-27T14:58:54;22.40;1.00
10566;DHT22;5331;48.148;16.326;2023-05-27T15:01:21;22.40;1.00
10566;DHT22;5331;48.148;16.326;2023-05-27T15:03:48;22.30;1.00
10566;DHT22;5331;48.148;16.326;2023-05-27T15:06:15;22.60;1.00
10566;DHT22;5331;48.148;16.326;2023-05-27T15:08:42;22.60;1.00
10566;DHT22;5331;48.148;16.326;2023-05-27T15:11:08;22.80;1.00
10566;DHT22;5331;48.148;16.326;2023-05-27T15:13:38;22.90;1.00
10566;DHT22;5331;48.148;16.326;2023-05-27T15:16:05;22.90;1.00
10566;DHT22;5331;48.148;16.326;2023-05-27T15:18:32;22.80;1.00
10566;DHT22;5331;48.148;16.326;2023-05-27T15:20:59;22.40;1.00
10566;DHT22;5331;48.148;16.326;2023-05-27T15:23:26;22.40;1.00
10566;DHT22;5331;48.148;16.326;2023-05-27T15:25:53;22.70;1.00
10566;DHT22;5331;48.148;16.326;2023-05-27T15:28:20;22.80;1.00
10566;DHT22;5331;48.148;16.326;2023-05-27T15:30:48;23.10;1.00
10566;DHT22;5331;48.148;16.326;2023-05-27T15:33:17;23.00;1.00
10566;DHT22;5331;48.148;16.326;2023-05-27T15:35:44;23.00;1.00
10566;DHT22;5331;48.148;16.326;2023-05-27T15:38:12;22.80;1.00
10566;DHT22;5331;48.148;16.326;2023-05-27T15:40:40;22.60;1.00
10566;DHT22;5331;48.148;16.326;2023-05-27T15:43:09;22.40;1.00
10566;DHT22;5331;48.148;16.326;2023-05-27T15:45:37;22.40;1.00
10566;DHT22;5331;48.148;16.326;2023-05-27T15:48:07;22.70;1.00
10566;DHT22;5331;48.148;16.326;2023-05-27T15:50:36;22.60;1.00